Time;durP1;ratioP1;P1;durP2;ratioP2;P2;SDS_P1;SDS_P2;PMS_P1;PMS_P2;Temp;Humidity;BMP_temperature;BMP_pressure;BME280_temperature;BME280_humidity;BME280_pressure;Samples;Min_cycle;Max_cycle;Signal;HPM_P1;HPM_P2
2022/12/11 00:01:19;;;;;;;0.20;0.20;;;14.30;67.60;;;;;;4194521;28;20042;-65
2022/12/11 00:04:00;;;;;;;0.90;0.90;;;14.40;67.60;;;;;;4194624;28;20519;-64
2022/12/11 00:06:42;;;;;;;1.45;1.45;;;14.40;67.50;;;;;;4209799;28;20407;-64
2022/12/11 00:09:23;;;;;;;0.00;0.00;;;14.40;67.50;;;;;;4211400;28;20185;-63
2022/12/11 00:12:06;;;;;;;0.80;0.80;;;14.40;67.60;;;;;;4210009;28;20052;-64
2022/12/11 00:14:47;;;;;;;0.00;0.00;;;14.40;67.50;;;;;;4209903;28;20101;-64
2022/12/11 00:17:27;;;;;;;0.00;0.00;;;14.40;67.30;;;;;;4211523;28;20403;-64
2022/12/11 00:20:09;;;;;;;1.55;1.35;;;14.50;67.20;;;;;;4210839;28;20112;-64
2022/12/11 00:22:51;;;;;;;;;;;14.50;67.10;;;;;;4211480;28;20067;-64
2022/12/11 00:25:32;;;;;;;0.00;0.00;;;14.60;66.80;;;;;;4210660;28;19931;-65
2022/12/11 00:28:15;;;;;;;0.10;0.10;;;14.70;66.50;;;;;;4210756;28;20770;-64
2022/12/11 00:30:56;;;;;;;0.30;0.30;;;14.70;66.30;;;;;;4211052;28;20109;-64
2022/12/11 00:33:37;;;;;;;0.00;0.00;;;14.70;66.20;;;;;;4210730;28;20093;-64
2022/12/11 00:36:20;;;;;;;0.00;0.00;;;14.80;65.90;;;;;;4210990;28;20124;-64
2022/12/11 00:39:04;;;;;;;1.27;0.73;;;14.90;65.60;;;;;;4210990;28;20620;-64
2022/12/11 00:41:45;;;;;;;0.00;0.00;;;14.90;65.30;;;;;;4210616;28;20054;-64
2022/12/11 00:44:26;;;;;;;0.28;0.28;;;15.00;65.10;;;;;;4210679;28;20116;-64
2022/12/11 00:47:07;;;;;;;0.28;0.28;;;15.10;64.90;;;;;;4210256;28;20055;-64
2022/12/11 00:49:48;;;;;;;0.35;0.35;;;15.00;64.80;;;;;;4210865;28;20050;-64
2022/12/11 00:52:29;;;;;;;0.38;0.38;;;15.00;64.80;;;;;;4210417;28;20055;-63
2022/12/11 00:55:12;;;;;;;0.07;0.07;;;15.00;64.90;;;;;;4210607;28;20051;-64
2022/12/11 00:57:53;;;;;;;0.00;0.00;;;15.00;64.80;;;;;;4210936;28;20070;-64
2022/12/11 01:00:34;;;;;;;0.00;0.00;;;15.10;64.70;;;;;;4210403;28;20051;-64
2022/12/11 01:03:16;;;;;;;0.63;0.63;;;15.10;64.70;;;;;;4207536;28;20122;-64
2022/12/11 01:05:57;;;;;;;0.00;0.00;;;15.10;64.80;;;;;;4210949;28;20066;-64
2022/12/11 01:08:38;;;;;;;0.17;0.17;;;15.10;64.60;;;;;;4210694;28;20062;-64
2022/12/11 01:11:20;;;;;;;0.47;0.47;;;15.20;64.40;;;;;;4210833;28;20406;-64
2022/12/11 01:14:00;;;;;;;;;;;15.30;64.20;;;;;;4210853;28;20293;-64
2022/12/11 01:16:41;;;;;;;0.00;0.00;;;15.30;63.90;;;;;;4205163;28;19994;-63
2022/12/11 01:19:22;;;;;;;0.00;0.00;;;15.40;63.70;;;;;;4210042;28;20043;-64
2022/12/11 01:22:03;;;;;;;1.55;1.45;;;15.50;63.60;;;;;;4210275;28;20498;-64
2022/12/11 01:24:44;;;;;;;0.15;0.15;;;15.40;63.70;;;;;;4210513;28;20513;-64
2022/12/11 01:27:26;;;;;;;0.00;0.00;;;15.40;63.60;;;;;;4210273;28;20194;-63
2022/12/11 01:30:09;;;;;;;0.00;0.00;;;15.50;63.60;;;;;;4203544;28;20425;-63
2022/12/11 01:32:50;;;;;;;0.00;0.00;;;15.50;63.40;;;;;;4203193;28;20054;-64
2022/12/11 01:35:31;;;;;;;0.00;0.00;;;15.50;63.50;;;;;;4210110;28;20063;-64
2022/12/11 01:38:11;;;;;;;0.45;0.45;;;15.40;63.50;;;;;;4210276;28;20047;-64
2022/12/11 01:40:52;;;;;;;0.90;0.90;;;15.40;63.80;;;;;;4210338;28;20051;-63
2022/12/11 01:43:35;;;;;;;0.00;0.00;;;15.40;63.90;;;;;;4209816;28;20059;-63
2022/12/11 01:46:16;;;;;;;0.10;0.10;;;15.40;63.80;;;;;;4210281;28;20086;-63
2022/12/11 01:48:59;;;;;;;0.00;0.00;;;15.40;63.80;;;;;;4209014;28;20177;-63
2022/12/11 01:51:44;;;;;;;0.00;0.00;;;15.40;63.80;;;;;;4208475;28;20514;-64
2022/12/11 01:54:29;;;;;;;9.63;1.60;;;15.50;63.70;;;;;;4199371;28;20044;-64
2022/12/11 01:57:12;;;;;;;0.35;0.35;;;15.50;63.70;;;;;;4209486;28;20104;-64
2022/12/11 01:59:54;;;;;;;4.38;3.30;;;15.40;63.80;;;;;;4210056;28;20395;-63
2022/12/11 02:02:35;;;;;;;0.32;0.32;;;15.40;64.00;;;;;;4209939;28;20185;-64
2022/12/11 02:05:17;;;;;;;0.57;0.57;;;15.40;63.90;;;;;;4209511;28;20140;-64
2022/12/11 02:08:00;;;;;;;0.00;0.00;;;15.50;63.80;;;;;;4209705;28;20539;-63
2022/12/11 02:10:56;;;;;;;0.00;0.00;;;15.50;63.60;;;;;;4209199;28;20043;-64
2022/12/11 02:13:44;;;;;;;0.15;0.15;;;15.50;64.50;;;;;;4208063;28;20153;-64
2022/12/11 02:16:33;;;;;;;0.10;0.10;;;15.50;63.70;;;;;;4209260;28;20402;-65
2022/12/11 02:19:25;;;;;;;0.00;0.00;;;15.50;63.70;;;;;;4209243;28;20046;-64
2022/12/11 02:22:08;;;;;;;;;;;15.50;63.40;;;;;;4209426;28;20055;-62
2022/12/11 02:25:03;;;;;;;0.52;0.52;;;15.60;63.30;;;;;;4197419;28;19965;-64
2022/12/11 02:27:47;;;;;;;0.00;0.00;;;15.60;63.40;;;;;;4207474;28;20390;-57
2022/12/11 02:30:30;;;;;;;0.00;0.00;;;15.50;63.40;;;;;;4208543;28;20121;-58
2022/12/11 02:33:13;;;;;;;1.48;0.65;;;15.60;63.50;;;;;;4209276;28;20093;-57
2022/12/11 02:35:54;;;;;;;0.52;0.52;;;15.60;63.30;;;;;;4209250;28;20486;-58
2022/12/11 02:38:40;;;;;;;0.00;0.00;;;15.60;63.20;;;;;;4205665;28;20055;-56
2022/12/11 02:41:24;;;;;;;1.13;1.13;;;15.60;63.20;;;;;;4209324;28;20054;-58
2022/12/11 02:44:05;;;;;;;0.00;0.00;;;15.60;63.40;;;;;;4209091;28;20502;-56
2022/12/11 02:46:48;;;;;;;0.20;0.20;;;15.60;63.60;;;;;;4209286;28;20096;-57
2022/12/11 02:49:30;;;;;;;0.65;0.65;;;15.50;63.70;;;;;;4202798;28;20055;-57
2022/12/11 02:52:14;;;;;;;0.00;0.00;;;15.40;64.00;;;;;;4192596;28;20098;-57
2022/12/11 02:54:58;;;;;;;0.00;0.00;;;15.40;64.20;;;;;;4204855;28;20051;-56
2022/12/11 02:57:44;;;;;;;0.03;0.03;;;15.30;64.50;;;;;;4209269;28;20066;-56
2022/12/11 03:00:25;;;;;;;0.00;0.00;;;15.20;64.90;;;;;;4208744;28;20406;-64
2022/12/11 03:03:07;;;;;;;0.00;0.00;;;15.20;65.10;;;;;;4209328;28;20124;-64
2022/12/11 03:05:48;;;;;;;0.30;0.30;;;15.20;65.00;;;;;;4209116;28;20050;-64
2022/12/11 03:08:29;;;;;;;0.00;0.00;;;15.20;65.00;;;;;;4207690;28;20603;-64
2022/12/11 03:11:10;;;;;;;0.23;0.23;;;15.30;65.00;;;;;;4206752;28;20090;-64
2022/12/11 03:13:52;;;;;;;;;;;15.30;64.90;;;;;;4209498;28;20055;-64
2022/12/11 03:16:36;;;;;;;0.00;0.00;;;15.30;64.70;;;;;;4209247;28;19927;-63
2022/12/11 03:19:24;;;;;;;0.00;0.00;;;15.30;64.70;;;;;;4208911;28;20050;-57
2022/12/11 03:22:10;;;;;;;0.43;0.43;;;15.30;64.70;;;;;;4209060;28;20066;-64
2022/12/11 03:24:55;;;;;;;0.00;0.00;;;15.40;65.50;;;;;;4208947;28;20046;-64
2022/12/11 03:27:43;;;;;;;0.00;0.00;;;15.50;64.30;;;;;;4208696;28;20090;-64
2022/12/11 03:30:25;;;;;;;0.00;0.00;;;15.50;64.20;;;;;;4191637;28;20056;-64
2022/12/11 03:33:11;;;;;;;0.20;0.20;;;15.50;64.10;;;;;;4191601;28;20055;-64
2022/12/11 03:35:56;;;;;;;0.00;0.00;;;15.60;63.90;;;;;;4191922;28;20051;-64
2022/12/11 03:38:41;;;;;;;1.10;1.10;;;15.60;63.60;;;;;;4191579;28;20416;-64
2022/12/11 03:41:25;;;;;;;0.00;0.00;;;15.60;63.60;;;;;;4205720;28;20120;-64
2022/12/11 03:44:08;;;;;;;0.00;0.00;;;15.70;63.60;;;;;;4192311;28;20787;-64
2022/12/11 03:46:51;;;;;;;0.03;0.03;;;15.70;63.50;;;;;;4191774;28;20059;-64
2022/12/11 03:49:36;;;;;;;0.08;0.08;;;15.70;63.50;;;;;;4206710;28;20081;-64
2022/12/11 03:52:20;;;;;;;0.00;0.00;;;15.60;63.60;;;;;;4208756;28;20063;-64
2022/12/11 03:55:04;;;;;;;0.00;0.00;;;15.50;63.80;;;;;;4208495;28;20097;-64
2022/12/11 03:57:45;;;;;;;0.93;0.70;;;15.50;64.00;;;;;;4208739;28;20710;-64
2022/12/11 04:00:26;;;;;;;0.10;0.10;;;15.60;64.00;;;;;;4210229;28;20116;-64
2022/12/11 04:03:13;;;;;;;0.10;0.10;;;15.60;63.80;;;;;;4210690;28;20059;-64
2022/12/11 04:05:55;;;;;;;0.00;0.00;;;15.60;63.80;;;;;;4210854;28;20289;-64
2022/12/11 04:08:38;;;;;;;0.00;0.00;;;15.60;63.80;;;;;;4211170;28;20118;-64
2022/12/11 04:11:37;;;;;;;0.00;0.00;;;15.50;63.80;;;;;;4211693;28;20051;-56
2022/12/11 04:24:14;;;;;;;0.65;0.65;;;15.40;65.20;;;;;;4207895;28;20059;-55
2022/12/11 04:26:19;;;;;;;0.10;0.10;;;15.50;64.10;;;;;;4194318;28;20056;-63
2022/12/11 04:29:00;;;;;;;0.00;0.00;;;15.60;64.60;;;;;;4193247;28;20486;-64
2022/12/11 04:31:41;;;;;;;0.00;0.00;;;15.70;63.70;;;;;;4199769;28;20054;-64
2022/12/11 04:34:22;;;;;;;0.70;0.70;;;15.70;63.50;;;;;;4210768;28;20059;-64
2022/12/11 04:37:03;;;;;;;0.00;0.00;;;15.70;63.30;;;;;;4210446;28;20121;-64
2022/12/11 04:39:44;;;;;;;0.10;0.10;;;15.80;63.10;;;;;;4210747;28;20047;-64
2022/12/11 04:42:26;;;;;;;0.00;0.00;;;15.80;63.00;;;;;;4209912;28;20055;-64
2022/12/11 04:45:09;;;;;;;0.00;0.00;;;15.90;62.90;;;;;;4210892;28;20051;-64
2022/12/11 04:47:50;;;;;;;0.30;0.30;;;15.90;62.70;;;;;;4208486;28;20178;-64
2022/12/11 04:50:30;;;;;;;2.53;1.98;;;16.00;62.60;;;;;;4210320;28;20043;-64
2022/12/11 04:53:11;;;;;;;0.00;0.00;;;15.90;62.50;;;;;;4211062;28;20118;-64
2022/12/11 04:55:52;;;;;;;0.22;0.22;;;16.00;62.60;;;;;;4209881;28;20137;-64
2022/12/11 04:58:35;;;;;;;0.10;0.10;;;15.90;62.50;;;;;;4210782;28;20158;-64
2022/12/11 05:01:19;;;;;;;0.10;0.10;;;15.90;62.60;;;;;;4209650;28;20047;-64
2022/12/11 05:04:00;;;;;;;0.00;0.00;;;15.80;62.70;;;;;;4210667;28;20055;-64
2022/12/11 05:06:41;;;;;;;0.90;0.52;;;15.80;63.00;;;;;;4195867;28;20060;-64
2022/12/11 05:09:21;;;;;;;0.08;0.08;;;15.70;63.40;;;;;;4209319;28;20144;-64
2022/12/11 05:12:02;;;;;;;0.00;0.00;;;15.70;64.40;;;;;;4210659;28;20560;-63
2022/12/11 05:14:44;;;;;;;1.80;0.85;;;15.70;63.40;;;;;;4193810;28;20071;-56
2022/12/11 05:17:25;;;;;;;0.00;0.00;;;15.80;63.20;;;;;;4193826;28;20051;-57
2022/12/11 05:20:08;;;;;;;2.53;0.85;;;15.80;62.90;;;;;;4196405;28;20112;-57
2022/12/11 05:22:49;;;;;;;0.17;0.17;;;15.90;62.80;;;;;;4209479;28;20063;-57
2022/12/11 05:25:30;;;;;;;1.55;1.55;;;15.90;62.70;;;;;;4210619;28;20071;-55
2022/12/11 05:28:11;;;;;;;1.80;1.27;;;15.90;62.80;;;;;;4210297;28;20048;-57
2022/12/11 05:30:57;;;;;;;2.45;1.02;;;15.80;62.80;;;;;;4193647;28;20557;-57
2022/12/11 05:33:38;;;;;;;0.55;0.55;;;15.90;62.80;;;;;;4193499;28;20071;-56
2022/12/11 05:36:21;;;;;;;0.00;0.00;;;16.00;62.60;;;;;;4195285;28;20051;-63
2022/12/11 05:39:03;;;;;;;0.00;0.00;;;16.00;62.50;;;;;;4210088;28;20506;-63
2022/12/11 05:41:44;;;;;;;0.00;0.00;;;16.00;62.60;;;;;;4209578;28;20055;-63
2022/12/11 05:44:25;;;;;;;0.00;0.00;;;15.90;62.40;;;;;;4210366;28;20186;-64
2022/12/11 05:47:07;;;;;;;0.15;0.15;;;15.90;62.50;;;;;;4210302;28;20051;-63
2022/12/11 05:49:48;;;;;;;0.20;0.20;;;16.00;62.40;;;;;;4209848;28;20403;-64
2022/12/11 05:52:31;;;;;;;0.00;0.00;;;16.00;62.10;;;;;;4191476;28;20119;-66
2022/12/11 05:55:12;;;;;;;4.57;2.05;;;16.10;61.90;;;;;;4192890;28;20070;-64
2022/12/11 05:57:53;;;;;;;0.00;0.00;;;16.10;61.80;;;;;;4192719;28;20123;-64
2022/12/11 06:00:34;;;;;;;0.00;0.00;;;16.10;61.90;;;;;;4192758;28;20047;-63
2022/12/11 06:03:17;;;;;;;0.10;0.10;;;16.00;62.10;;;;;;4202491;28;20406;-64
2022/12/11 06:06:01;;;;;;;0.00;0.00;;;16.00;62.40;;;;;;4209370;28;20055;-64
2022/12/11 06:08:43;;;;;;;0.00;0.00;;;16.00;62.50;;;;;;4208977;28;20155;-64
2022/12/11 06:11:27;;;;;;;1.13;1.02;;;15.90;62.40;;;;;;4206122;28;20407;-57
2022/12/11 06:14:07;;;;;;;0.68;0.68;;;15.90;62.40;;;;;;4208997;28;20108;-57
2022/12/11 06:16:48;;;;;;;0.20;0.20;;;15.90;62.50;;;;;;4208248;28;20051;-56
2022/12/11 06:19:31;;;;;;;1.45;1.38;;;15.80;62.70;;;;;;4209536;28;20055;-58
2022/12/11 06:22:16;;;;;;;0.00;0.00;;;15.70;63.00;;;;;;4209007;28;20043;-58
2022/12/11 06:24:57;;;;;;;0.10;0.10;;;15.60;63.40;;;;;;4209346;28;20182;-56
2022/12/11 06:27:38;;;;;;;0.10;0.10;;;15.60;63.70;;;;;;4194120;28;20075;-57
2022/12/11 06:30:19;;;;;;;0.55;0.55;;;15.60;63.60;;;;;;4208789;28;20403;-57
2022/12/11 06:33:00;;;;;;;0.00;0.00;;;15.60;63.60;;;;;;4208888;28;20105;-57
2022/12/11 06:35:42;;;;;;;0.13;0.13;;;15.60;63.50;;;;;;4209055;28;20055;-53
2022/12/11 06:38:22;;;;;;;0.00;0.00;;;15.60;63.40;;;;;;4208784;28;20282;-57
2022/12/11 06:41:04;;;;;;;0.08;0.08;;;15.60;63.40;;;;;;4208975;28;20048;-52
2022/12/11 06:43:45;;;;;;;0.00;0.00;;;15.60;63.50;;;;;;4207483;28;20047;-55
2022/12/11 06:46:26;;;;;;;0.00;0.00;;;15.50;63.60;;;;;;4209492;28;20190;-52
2022/12/11 06:49:07;;;;;;;3.83;1.27;;;15.50;63.90;;;;;;4209276;28;20814;-55
2022/12/11 06:51:49;;;;;;;0.10;0.10;;;15.40;64.10;;;;;;4209211;28;20596;-56
2022/12/11 06:54:29;;;;;;;2.15;0.47;;;15.30;64.60;;;;;;4209069;28;20059;-54
2022/12/11 06:57:11;;;;;;;0.00;0.00;;;15.30;65.30;;;;;;4208823;28;20101;-54
2022/12/11 06:59:52;;;;;;;0.05;0.05;;;15.30;65.20;;;;;;4209168;28;20055;-57
2022/12/11 07:02:33;;;;;;;1.75;1.65;;;15.40;65.50;;;;;;4208288;28;20181;-56
2022/12/11 07:05:14;;;;;;;1.10;1.10;;;15.50;65.20;;;;;;4192168;28;20174;-56
2022/12/11 07:07:56;;;;;;;0.52;0.52;;;15.70;63.80;;;;;;4202247;28;20182;-58
2022/12/11 07:10:37;;;;;;;0.00;0.00;;;15.80;63.50;;;;;;4207564;28;20059;-58
2022/12/11 07:13:18;;;;;;;0.00;0.00;;;15.80;63.00;;;;;;4208262;28;20121;-57
2022/12/11 07:16:00;;;;;;;0.00;0.00;;;15.90;62.70;;;;;;4209104;28;20391;-56
2022/12/11 07:18:43;;;;;;;0.10;0.10;;;16.00;62.50;;;;;;4197979;28;20182;-56
2022/12/11 07:21:24;;;;;;;0.93;0.93;;;16.10;62.30;;;;;;4196402;28;20059;-52
2022/12/11 07:24:08;;;;;;;0.20;0.20;;;16.10;62.10;;;;;;4191587;28;20055;-57
2022/12/11 07:26:49;;;;;;;0.10;0.10;;;16.20;62.00;;;;;;4192049;28;20043;-54
2022/12/11 07:29:30;;;;;;;0.00;0.00;;;16.20;61.80;;;;;;4208754;28;20097;-57
2022/12/11 07:32:11;;;;;;;0.15;0.15;;;16.20;61.80;;;;;;4207611;28;20560;-58
2022/12/11 07:34:52;;;;;;;0.00;0.00;;;16.20;61.70;;;;;;4193214;28;20081;-55
2022/12/11 07:37:33;;;;;;;0.52;0.52;;;16.20;61.60;;;;;;4210633;28;20178;-57
2022/12/11 07:40:15;;;;;;;0.05;0.05;;;16.20;61.60;;;;;;4211100;28;20054;-57
2022/12/11 07:42:56;;;;;;;0.10;0.10;;;16.10;62.20;;;;;;4212168;28;20050;-58
2022/12/11 07:45:38;;;;;;;0.45;0.45;;;16.00;63.80;;;;;;4211474;28;20067;-59
2022/12/11 07:48:19;;;;;;;;;;;16.00;65.10;;;;;;4211409;28;20069;-64
2022/12/11 07:51:08;;;;;;;0.65;0.65;;;15.80;65.60;;;;;;4211939;28;19994;-62
2022/12/11 07:53:50;;;;;;;0.15;0.15;;;15.70;65.70;;;;;;4211986;28;20055;-64
2022/12/11 07:56:33;;;;;;;0.43;0.43;;;15.70;65.90;;;;;;4211495;28;20054;-63
2022/12/11 07:59:15;;;;;;;0.13;0.13;;;15.60;66.20;;;;;;4198366;28;20042;-64
2022/12/11 08:01:56;;;;;;;0.52;0.52;;;15.60;66.60;;;;;;4211421;28;20063;-64
2022/12/11 08:04:37;;;;;;;0.90;0.90;;;15.60;66.60;;;;;;4211688;28;20122;-64
2022/12/11 08:07:18;;;;;;;0.10;0.10;;;15.60;66.30;;;;;;4211843;28;20088;-64
2022/12/11 08:09:59;;;;;;;0.00;0.00;;;15.70;65.90;;;;;;4210262;28;20093;-65
2022/12/11 08:12:41;;;;;;;0.38;0.38;;;15.80;65.60;;;;;;4200061;28;20047;-64
2022/12/11 08:15:22;;;;;;;0.10;0.10;;;15.90;65.10;;;;;;4211110;28;20043;-64
2022/12/11 08:18:03;;;;;;;0.45;0.45;;;16.00;64.60;;;;;;4209945;28;20058;-64
2022/12/11 08:20:44;;;;;;;1.48;1.48;;;16.10;64.10;;;;;;4209975;28;20051;-64
2022/12/11 08:23:25;;;;;;;0.05;0.05;;;16.20;63.80;;;;;;4211405;28;20054;-64
2022/12/11 08:26:08;;;;;;;0.00;0.00;;;16.20;63.60;;;;;;4211237;28;20130;-64
2022/12/11 08:28:50;;;;;;;0.10;0.10;;;16.20;63.50;;;;;;4211206;28;20510;-64
2022/12/11 08:31:32;;;;;;;0.00;0.00;;;16.20;63.50;;;;;;4211209;28;20082;-64
2022/12/11 08:34:13;;;;;;;1.17;1.10;;;16.20;63.50;;;;;;4194172;28;20052;-64
2022/12/11 08:36:53;;;;;;;0.52;0.52;;;16.10;63.60;;;;;;4193188;28;20056;-64
2022/12/11 08:39:34;;;;;;;0.13;0.13;;;16.10;63.80;;;;;;4193347;28;20105;-64
2022/12/11 08:42:15;;;;;;;0.37;0.37;;;16.10;63.80;;;;;;4194356;28;20047;-64
2022/12/11 08:44:57;;;;;;;0.10;0.10;;;16.20;63.70;;;;;;4193022;28;20055;-64
2022/12/11 08:47:38;;;;;;;0.00;0.00;;;16.20;63.50;;;;;;4209206;28;20112;-64
2022/12/11 08:50:19;;;;;;;0.00;0.00;;;16.20;63.50;;;;;;4210887;28;20186;-62
2022/12/11 08:53:00;;;;;;;0.13;0.13;;;16.20;63.30;;;;;;4210992;28;20055;-64
2022/12/11 08:55:41;;;;;;;0.00;0.00;;;16.20;63.80;;;;;;4210814;28;20122;-65
2022/12/11 08:58:22;;;;;;;0.60;0.60;;;16.20;64.20;;;;;;4210072;28;20121;-65
2022/12/11 09:01:08;;;;;;;0.00;0.00;;;16.20;64.10;;;;;;4210132;28;20059;-63
2022/12/11 09:03:51;;;;;;;0.10;0.10;;;16.20;63.80;;;;;;4209198;28;21235;-65
2022/12/11 09:06:33;;;;;;;0.00;0.00;;;16.30;63.70;;;;;;4210482;28;20064;-65
2022/12/11 09:09:14;;;;;;;0.00;0.00;;;16.30;63.60;;;;;;4210383;28;20118;-64
2022/12/11 09:11:55;;;;;;;0.10;0.10;;;16.20;63.70;;;;;;4210013;28;20121;-64
2022/12/11 09:14:36;;;;;;;0.13;0.13;;;16.20;63.60;;;;;;4210596;28;20066;-64
2022/12/11 09:17:17;;;;;;;0.00;0.00;;;16.30;63.40;;;;;;4210349;28;20054;-66
2022/12/11 09:19:58;;;;;;;0.00;0.00;;;16.30;63.20;;;;;;4208460;28;20055;-64
2022/12/11 09:22:41;;;;;;;0.00;0.00;;;16.30;63.10;;;;;;4210021;28;20510;-64
2022/12/11 09:25:22;;;;;;;0.70;0.70;;;16.30;63.10;;;;;;4209858;28;20058;-64
2022/12/11 09:28:03;;;;;;;3.20;0.57;;;16.20;63.00;;;;;;4210154;28;20071;-65
2022/12/11 09:30:44;;;;;;;0.30;0.30;;;16.20;63.30;;;;;;4210004;28;20051;-64
2022/12/11 09:33:26;;;;;;;0.08;0.08;;;16.20;63.40;;;;;;4208718;28;20154;-64
2022/12/11 09:36:08;;;;;;;0.22;0.22;;;16.40;63.00;;;;;;4193637;28;20194;-65
2022/12/11 09:38:49;;;;;;;0.00;0.00;;;16.70;61.90;;;;;;4193039;28;20597;-64
2022/12/11 09:41:37;;;;;;;0.65;0.45;;;17.00;60.70;;;;;;4209073;28;20399;-65
2022/12/11 09:44:31;;;;;;;0.60;0.60;;;17.40;59.60;;;;;;4209944;28;20137;-65
2022/12/11 09:47:19;;;;;;;0.10;0.10;;;17.80;58.60;;;;;;4209961;28;20050;-64
2022/12/11 09:50:12;;;;;;;2.92;2.13;;;18.20;57.60;;;;;;4209891;28;20043;-64
2022/12/11 09:53:05;;;;;;;0.00;0.00;;;18.50;56.60;;;;;;4192574;28;20055;-64
2022/12/11 09:55:54;;;;;;;0.28;0.28;;;18.80;55.70;;;;;;4193345;28;20067;-65
2022/12/11 09:58:41;;;;;;;0.28;0.28;;;19.10;55.10;;;;;;4192111;28;20059;-64
2022/12/11 10:01:31;;;;;;;0.20;0.20;;;19.20;54.60;;;;;;4192994;28;20055;-64
2022/12/11 10:04:38;;;;;;;0.00;0.00;;;19.30;54.30;;;;;;4192845;28;20066;-64
2022/12/11 10:07:30;;;;;;;0.00;0.00;;;19.40;54.20;;;;;;4192847;28;20055;-65
2022/12/11 10:10:20;;;;;;;1.65;1.58;;;19.40;54.20;;;;;;4192613;28;20058;-63
2022/12/11 10:13:12;;;;;;;0.00;0.00;;;19.20;54.30;;;;;;4193029;28;20518;-64
2022/12/11 10:15:57;;;;;;;0.00;0.00;;;19.10;54.70;;;;;;4197052;28;20051;-64
2022/12/11 10:18:39;;;;;;;0.00;0.00;;;19.00;54.90;;;;;;4209531;28;20410;-65
2022/12/11 10:21:20;;;;;;;;;;;19.00;55.00;;;;;;4209956;28;20050;-64
2022/12/11 10:24:05;;;;;;;0.35;0.35;;;19.00;55.10;;;;;;4209363;28;19998;-65
2022/12/11 10:26:47;;;;;;;0.00;0.00;;;19.00;55.10;;;;;;4209451;28;20490;-65
2022/12/11 10:29:28;;;;;;;0.20;0.20;;;19.00;55.10;;;;;;4209290;28;20058;-64
2022/12/11 10:32:21;;;;;;;0.00;0.00;;;19.00;55.00;;;;;;4207300;28;20502;-64
2022/12/11 10:35:06;;;;;;;0.35;0.35;;;19.10;54.90;;;;;;4208643;28;20043;-64
2022/12/11 10:37:47;;;;;;;0.85;0.25;;;19.10;54.70;;;;;;4208866;28;20407;-64
2022/12/11 10:40:34;;;;;;;1.67;1.58;;;19.20;54.70;;;;;;4209094;28;20189;-64
2022/12/11 10:43:16;;;;;;;0.30;0.30;;;19.20;55.30;;;;;;4209277;28;20494;-64
2022/12/11 10:45:57;;;;;;;0.03;0.03;;;19.30;54.60;;;;;;4209260;28;20438;-64
2022/12/11 10:48:45;;;;;;;0.08;0.08;;;19.30;54.60;;;;;;4200541;28;20048;-64
2022/12/11 10:51:34;;;;;;;0.00;0.00;;;19.30;54.50;;;;;;4192552;28;20494;-64
2022/12/11 10:54:27;;;;;;;0.20;0.20;;;19.30;54.50;;;;;;4192599;28;20411;-64
2022/12/11 10:57:13;;;;;;;0.55;0.55;;;19.20;54.60;;;;;;4192281;28;20047;-64
2022/12/11 10:59:55;;;;;;;0.10;0.10;;;19.10;55.00;;;;;;4192664;28;20059;-64
2022/12/11 11:02:39;;;;;;;0.70;0.70;;;19.00;55.10;;;;;;4207392;28;20685;-65
2022/12/11 11:05:29;;;;;;;0.35;0.35;;;19.00;55.20;;;;;;4209076;28;20051;-64
2022/12/11 11:08:14;;;;;;;0.20;0.20;;;19.10;55.20;;;;;;4209481;28;20118;-65
2022/12/11 11:10:57;;;;;;;3.65;1.98;;;19.10;55.70;;;;;;4214658;28;20117;-65
2022/12/11 11:13:39;;;;;;;1.30;1.25;;;19.20;54.80;;;;;;4214757;28;20051;-64
2022/12/11 11:16:22;;;;;;;0.00;0.00;;;19.30;54.60;;;;;;4214051;27;20524;-65
2022/12/11 11:19:02;;;;;;;0.00;0.00;;;19.40;54.50;;;;;;4214491;27;20177;-65
2022/12/11 11:21:50;;;;;;;0.25;0.25;;;19.50;54.40;;;;;;4214226;28;20054;-65
2022/12/11 11:24:36;;;;;;;0.00;0.00;;;19.50;54.20;;;;;;4214684;28;20055;-65
2022/12/11 11:27:28;;;;;;;0.00;0.00;;;19.60;54.20;;;;;;4213540;28;20050;-65
2022/12/11 11:30:19;;;;;;;0.00;0.00;;;19.50;54.00;;;;;;4214011;28;20055;-64
2022/12/11 11:33:05;;;;;;;2.35;0.88;;;19.50;54.10;;;;;;4212892;27;20047;-65
2022/12/11 11:35:53;;;;;;;0.10;0.10;;;19.50;54.10;;;;;;4214116;27;20132;-65
2022/12/11 11:38:37;;;;;;;0.10;0.10;;;19.40;54.30;;;;;;4213635;27;20055;-66
2022/12/11 11:41:23;;;;;;;0.00;0.00;;;19.30;54.60;;;;;;4213647;27;20054;-65
2022/12/11 11:44:07;;;;;;;0.00;0.00;;;19.20;55.40;;;;;;4214011;27;20180;-65
2022/12/11 11:46:57;;;;;;;2.00;1.73;;;19.20;54.90;;;;;;4213987;27;20502;-66
2022/12/11 11:49:48;;;;;;;0.00;0.00;;;19.20;54.90;;;;;;4197117;28;20051;-58
2022/12/11 11:52:34;;;;;;;0.00;0.00;;;19.30;55.00;;;;;;4196899;28;20055;-57
2022/12/11 11:55:19;;;;;;;0.63;0.63;;;19.30;54.80;;;;;;4197216;28;20505;-55
2022/12/11 11:58:09;;;;;;;0.32;0.32;;;19.30;54.60;;;;;;4197525;28;20051;-58
2022/12/11 12:00:53;;;;;;;0.40;0.28;;;19.40;54.50;;;;;;4203712;28;20302;-58
2022/12/11 12:03:36;;;;;;;0.00;0.00;;;19.40;54.30;;;;;;4214060;28;20059;-58
2022/12/11 12:06:26;;;;;;;0.00;0.00;;;19.50;54.30;;;;;;4214146;28;20055;-58
2022/12/11 12:09:22;;;;;;;0.10;0.10;;;19.50;54.20;;;;;;4214026;28;20051;-58
2022/12/11 12:12:12;;;;;;;0.57;0.57;;;19.50;54.20;;;;;;4213536;28;20051;-58
2022/12/11 12:15:01;;;;;;;0.00;0.00;;;19.50;54.40;;;;;;4213440;28;20051;-58
2022/12/11 12:17:51;;;;;;;0.00;0.00;;;19.30;54.70;;;;;;4213562;27;20055;-57
2022/12/11 12:20:43;;;;;;;0.98;0.98;;;19.20;55.00;;;;;;4211413;28;20055;-59
2022/12/11 12:23:35;;;;;;;0.00;0.00;;;19.10;55.20;;;;;;4211098;28;20051;-59
2022/12/11 12:26:24;;;;;;;0.00;0.00;;;19.10;55.20;;;;;;4210732;28;20047;-59
2022/12/11 12:29:16;;;;;;;0.60;0.60;;;19.20;55.20;;;;;;4211013;28;20059;-59
2022/12/11 12:32:08;;;;;;;0.32;0.32;;;19.20;55.10;;;;;;4209941;28;20113;-60
2022/12/11 12:34:57;;;;;;;;;;;19.30;54.90;;;;;;4211229;28;20051;-56
2022/12/11 12:37:52;;;;;;;0.00;0.00;;;19.40;54.80;;;;;;4211010;28;19931;-57
2022/12/11 12:40:41;;;;;;;0.00;0.00;;;19.40;54.60;;;;;;4207379;28;20097;-57
2022/12/11 12:43:45;;;;;;;0.00;0.00;;;19.50;54.50;;;;;;4208812;28;20047;-64
2022/12/11 12:46:41;;;;;;;0.73;0.70;;;19.50;54.40;;;;;;4207670;28;20094;-64
2022/12/11 12:49:36;;;;;;;1.75;1.65;;;19.60;54.60;;;;;;4209005;28;20047;-64
2022/12/11 12:52:22;;;;;;;0.25;0.25;;;19.60;54.80;;;;;;4211062;28;20050;-64
2022/12/11 12:55:21;;;;;;;0.47;0.47;;;19.60;54.70;;;;;;4210860;28;20047;-64
2022/12/11 12:58:05;;;;;;;0.00;0.00;;;19.50;54.70;;;;;;4208902;28;20055;-63
2022/12/11 13:00:46;;;;;;;0.35;0.35;;;19.40;54.90;;;;;;4210136;28;20414;-63
2022/12/11 13:03:31;;;;;;;7.57;1.58;;;19.30;55.00;;;;;;4209789;28;20055;-64
2022/12/11 13:06:12;;;;;;;0.00;0.00;;;19.30;55.00;;;;;;4207052;28;20070;-63
2022/12/11 13:08:53;;;;;;;0.00;0.00;;;19.30;55.10;;;;;;4213103;28;20058;-64
2022/12/11 13:11:36;;;;;;;0.08;0.08;;;19.30;55.20;;;;;;4209320;28;20058;-63
2022/12/11 13:14:29;;;;;;;0.10;0.10;;;19.20;55.90;;;;;;4210268;28;20181;-63
2022/12/11 13:17:35;;;;;;;0.38;0.38;;;19.20;55.30;;;;;;4209708;28;20046;-62
2022/12/11 13:20:18;;;;;;;3.20;0.85;;;19.10;55.40;;;;;;4209120;28;20471;-63
2022/12/11 13:23:17;;;;;;;0.98;0.98;;;19.10;55.60;;;;;;4206994;28;20128;-63
2022/12/11 13:25:59;;;;;;;0.00;0.00;;;19.00;55.80;;;;;;4209338;28;20054;-63
2022/12/11 13:28:50;;;;;;;0.00;0.00;;;18.90;56.10;;;;;;4209301;28;20051;-62
2022/12/11 13:31:37;;;;;;;0.25;0.25;;;18.80;56.30;;;;;;4209032;28;20136;-63
2022/12/11 13:34:22;;;;;;;0.60;0.60;;;18.70;56.40;;;;;;4196940;28;20493;-53
2022/12/11 13:37:05;;;;;;;0.98;0.98;;;18.70;57.10;;;;;;4209075;28;20059;-58
2022/12/11 13:39:47;;;;;;;2.83;2.30;;;18.80;56.40;;;;;;4192659;28;20502;-57
2022/12/11 13:42:32;;;;;;;0.20;0.20;;;18.80;57.10;;;;;;4192560;28;20055;-56
2022/12/11 13:45:25;;;;;;;0.30;0.30;;;18.80;56.30;;;;;;4192470;28;20059;-55
2022/12/11 13:48:19;;;;;;;0.20;0.20;;;18.80;56.30;;;;;;4187540;28;20105;-57
2022/12/11 13:51:01;;;;;;;0.68;0.68;;;18.80;56.20;;;;;;4209325;28;20050;-57
2022/12/11 13:53:42;;;;;;;0.47;0.47;;;18.90;56.20;;;;;;4209472;28;20055;-57
2022/12/11 13:56:23;;;;;;;1.55;1.45;;;18.90;56.80;;;;;;4203582;28;20059;-57
2022/12/11 13:59:04;;;;;;;0.10;0.10;;;18.90;56.10;;;;;;4192396;28;20442;-57
2022/12/11 14:01:47;;;;;;;0.00;0.00;;;18.90;56.00;;;;;;4192880;28;20051;-59
2022/12/11 14:04:28;;;;;;;1.25;1.25;;;18.90;56.10;;;;;;4173826;28;20052;-57
2022/12/11 14:07:10;;;;;;;;;;;18.90;56.10;;;;;;4195157;28;20055;-58
2022/12/11 14:09:51;;;;;;;0.20;0.20;;;18.90;56.10;;;;;;4208968;28;19931;-56
2022/12/11 14:12:32;;;;;;;0.30;0.30;;;18.90;56.10;;;;;;4209703;28;20113;-58
2022/12/11 14:15:15;;;;;;;0.00;0.00;;;18.90;56.10;;;;;;4209937;28;20055;-58
2022/12/11 14:17:59;;;;;;;1.75;1.60;;;18.80;56.20;;;;;;4209010;28;20054;-57
2022/12/11 14:20:39;;;;;;;0.00;0.00;;;18.70;56.50;;;;;;4209457;28;20510;-58
2022/12/11 14:23:23;;;;;;;0.00;0.00;;;18.60;56.70;;;;;;4203087;28;20113;-58